createdAt,value
2023-02-23T00:00:28.109Z,39.47
2023-02-23T00:01:30.460Z,36.60
2023-02-23T00:02:32.335Z,39.45
2023-02-23T00:03:34.057Z,37.72
2023-02-23T00:04:36.992Z,38.55
2023-02-23T00:05:38.753Z,38.33
2023-02-23T00:06:40.787Z,39.75
2023-02-23T00:07:45.546Z,40.15
2023-02-23T00:08:52.231Z,41.33
2023-02-23T00:09:53.891Z,37.05
2023-02-23T00:10:58.649Z,41.03
2023-02-23T00:12:07.506Z,38.75
2023-02-23T00:13:11.082Z,36.92
2023-02-23T00:14:12.776Z,37.42
2023-02-23T00:15:15.737Z,38.25
2023-02-23T00:16:19.853Z,38.90
2023-02-23T00:17:24.342Z,39.63
2023-02-23T00:18:30.082Z,38.63
2023-02-23T00:19:33.660Z,35.17
2023-02-23T00:20:35.299Z,31.50
2023-02-23T00:21:37.155Z,33.10
2023-02-23T00:22:41.835Z,33.50
2023-02-23T00:23:47.895Z,32.08
2023-02-23T00:24:50.202Z,33.30
2023-02-23T00:25:51.888Z,34.10
2023-02-23T00:26:53.589Z,30.50
2023-02-23T00:27:55.099Z,34.47
2023-02-23T00:28:57.970Z,35.17
2023-02-23T00:29:59.942Z,44.70
2023-02-23T00:31:05.144Z,49.33
2023-02-23T00:32:07.371Z,47.90
2023-02-23T00:33:09.557Z,44.55
2023-02-23T00:34:13.725Z,46.40
2023-02-23T00:35:19.095Z,45.70
2023-02-23T00:36:23.149Z,46.20
2023-02-23T00:37:24.810Z,40.45
2023-02-23T00:38:26.387Z,37.83
2023-02-23T00:39:29.413Z,42.28
2023-02-23T00:40:31.204Z,37.72
2023-02-23T00:41:32.956Z,35.53
2023-02-23T00:42:35.731Z,41.85
2023-02-23T00:43:49.940Z,43.95
2023-02-23T00:44:51.717Z,44.25
2023-02-23T00:45:55.752Z,42.15
2023-02-23T00:46:57.526Z,43.80
2023-02-23T00:47:59.212Z,45.67
2023-02-23T00:49:01.006Z,44.67
2023-02-23T00:50:05.111Z,46.75
2023-02-23T00:51:06.979Z,46.28
2023-02-23T00:52:09.089Z,45.78
2023-02-23T00:53:11.659Z,46.08
2023-02-23T00:54:14.833Z,44.90
2023-02-23T00:55:16.778Z,48.50
2023-02-23T00:56:18.324Z,50.45
2023-02-23T00:57:20.019Z,48.70
2023-02-23T00:58:23.384Z,49.35
2023-02-23T00:59:24.987Z,49.60
2023-02-23T01:00:26.658Z,49.50
2023-02-23T01:01:28.419Z,51.25
2023-02-23T01:02:30.919Z,51.17
2023-02-23T01:03:32.709Z,52.83
2023-02-23T01:04:34.632Z,54.22
2023-02-23T01:05:36.548Z,50.55
2023-02-23T01:06:39.735Z,55.75
2023-02-23T01:07:41.444Z,54.33
2023-02-23T01:08:45.900Z,51.20
2023-02-23T01:09:47.755Z,54.65
2023-02-23T01:10:53.299Z,53.97
2023-02-23T01:11:56.844Z,54.28
2023-02-23T01:12:58.446Z,50.67
2023-02-23T01:14:01.874Z,55.38
2023-02-23T01:15:04.076Z,52.28
2023-02-23T01:16:07.803Z,52.72
2023-02-23T01:17:09.399Z,53.28
2023-02-23T01:18:11.578Z,53.15
2023-02-23T01:19:13.461Z,48.88
2023-02-23T01:20:19.724Z,49.78
2023-02-23T01:21:41.994Z,48.08
2023-02-23T01:22:45.711Z,47.80
2023-02-23T01:23:47.396Z,48.60
2023-02-23T01:24:49.013Z,45.53
2023-02-23T01:25:51.710Z,44.75
2023-02-23T01:26:53.852Z,49.00
2023-02-23T01:27:55.784Z,48.60
2023-02-23T01:29:04.122Z,46.95
2023-02-23T01:30:08.287Z,41.97
2023-02-23T01:31:10.439Z,41.17
2023-02-23T01:32:12.167Z,37.75
2023-02-23T01:33:14.013Z,37.22
2023-02-23T01:34:15.870Z,39.00
2023-02-23T01:35:17.888Z,37.30
2023-02-23T01:36:19.544Z,39.10
2023-02-23T01:37:21.174Z,37.83
2023-02-23T01:38:22.820Z,45.20
2023-02-23T01:39:24.374Z,44.00
2023-02-23T01:40:30.638Z,38.83
2023-02-23T01:41:33.103Z,45.28
2023-02-23T01:42:38.832Z,48.83
2023-02-23T01:44:04.067Z,46.08
2023-02-23T01:45:28.994Z,47.60
2023-02-23T01:46:36.377Z,44.35
2023-02-23T01:47:38.066Z,38.28
2023-02-23T01:48:40.807Z,45.00
2023-02-23T01:49:42.553Z,41.88
2023-02-23T01:51:11.632Z,45.92
2023-02-23T01:52:17.121Z,42.08
2023-02-23T01:53:22.831Z,43.25
2023-02-23T01:54:29.495Z,43.90
2023-02-23T01:55:31.644Z,44.08
2023-02-23T01:56:36.982Z,43.88
2023-02-23T01:57:41.729Z,42.15
2023-02-23T01:58:47.427Z,44.03
2023-02-23T01:59:51.937Z,43.60
2023-02-23T02:00:56.403Z,44.70
2023-02-23T02:01:58.191Z,46.30
2023-02-23T02:03:03.501Z,45.95
2023-02-23T02:04:08.067Z,44.83
2023-02-23T02:05:14.079Z,44.38
2023-02-23T02:06:18.421Z,47.15
2023-02-23T02:07:24.055Z,48.28
2023-02-23T02:08:27.204Z,47.23
2023-02-23T02:09:29.047Z,41.92
2023-02-23T02:10:39.901Z,45.88
2023-02-23T02:11:45.107Z,43.85
2023-02-23T02:12:55.520Z,39.72
2023-02-23T02:14:12.828Z,45.72
2023-02-23T02:15:17.860Z,46.00
2023-02-23T02:16:34.238Z,41.35
2023-02-23T02:17:48.016Z,41.40
2023-02-23T02:19:21.641Z,44.42
2023-02-23T02:20:43.551Z,42.15
2023-02-23T02:22:04.856Z,44.27
2023-02-23T02:23:46.378Z,43.55
2023-02-23T02:25:21.986Z,43.38
2023-02-23T02:26:26.222Z,45.72
2023-02-23T02:27:36.866Z,45.22
2023-02-23T02:28:50.387Z,43.97
2023-02-23T02:30:29.525Z,45.27
2023-02-23T02:31:54.968Z,44.45
2023-02-23T02:33:06.099Z,48.90
2023-02-23T02:34:46.834Z,44.25
2023-02-23T02:36:22.184Z,43.15
2023-02-23T02:37:23.772Z,46.45
2023-02-23T02:38:50.615Z,50.58
2023-02-23T02:40:17.233Z,48.42
2023-02-23T02:41:35.575Z,47.72
2023-02-23T02:42:51.045Z,50.60
2023-02-23T02:43:55.706Z,53.90
2023-02-23T02:45:03.585Z,52.13
2023-02-23T02:46:21.496Z,49.30
2023-02-23T02:47:33.110Z,44.72
2023-02-23T02:48:59.284Z,49.78
2023-02-23T02:50:31.421Z,48.90
2023-02-23T02:51:49.272Z,50.38
2023-02-23T02:52:59.195Z,48.58
2023-02-23T02:54:18.701Z,48.97
2023-02-23T02:55:26.727Z,48.15
2023-02-23T02:56:28.981Z,38.60
2023-02-23T02:57:33.109Z,40.42
2023-02-23T02:58:36.102Z,43.17
2023-02-23T03:00:09.129Z,47.95
2023-02-23T03:01:34.462Z,50.25
2023-02-23T03:02:59.603Z,47.83
2023-02-23T03:04:37.455Z,45.28
2023-02-23T03:06:03.911Z,49.30
2023-02-23T03:07:45.065Z,48.53
2023-02-23T03:09:26.676Z,48.42
2023-02-23T03:11:30.356Z,50.35
2023-02-23T03:13:05.992Z,47.92
2023-02-23T03:14:47.441Z,48.30
2023-02-23T03:16:45.535Z,50.60
2023-02-23T03:18:11.034Z,50.20
2023-02-23T03:19:42.747Z,46.58
2023-02-23T03:21:09.199Z,48.60
2023-02-23T03:22:44.580Z,51.45
2023-02-23T03:24:35.402Z,47.15
2023-02-23T03:26:21.968Z,50.53
2023-02-23T03:27:45.639Z,49.17
2023-02-23T03:29:19.280Z,53.83
2023-02-23T03:30:51.564Z,48.00
2023-02-23T03:32:30.017Z,48.80
2023-02-23T03:34:33.277Z,47.75
2023-02-23T03:36:00.790Z,44.25
2023-02-23T03:37:38.239Z,45.80
2023-02-23T03:39:08.231Z,48.97
2023-02-23T03:40:37.324Z,54.20
2023-02-23T03:41:59.695Z,49.53
2023-02-23T03:43:24.303Z,51.53
2023-02-23T03:44:50.260Z,48.03
2023-02-23T03:46:14.265Z,48.75
2023-02-23T03:47:37.192Z,47.53
2023-02-23T03:49:02.535Z,52.03
2023-02-23T03:50:28.264Z,52.83
2023-02-23T03:51:52.125Z,53.63
2023-02-23T03:53:16.868Z,53.33
2023-02-23T03:54:45.242Z,56.15
2023-02-23T03:56:11.093Z,54.13
2023-02-23T03:57:35.362Z,55.03
2023-02-23T03:59:06.056Z,51.38
2023-02-23T04:00:30.267Z,55.95
2023-02-23T04:01:52.423Z,52.35
2023-02-23T04:03:15.385Z,52.80
2023-02-23T04:04:36.280Z,45.88
2023-02-23T04:05:59.255Z,55.00
2023-02-23T04:07:22.304Z,53.65
2023-02-23T04:08:49.592Z,49.05
2023-02-23T04:10:10.021Z,45.13
2023-02-23T04:12:04.550Z,46.67
2023-02-23T04:13:18.628Z,45.08
2023-02-23T04:14:46.732Z,42.05
2023-02-23T04:15:53.501Z,45.35
2023-02-23T04:16:56.496Z,43.40
2023-02-23T04:17:58.731Z,44.17
2023-02-23T04:19:01.224Z,42.40
2023-02-23T04:20:04.024Z,48.75
2023-02-23T04:21:07.026Z,53.45
2023-02-23T04:22:09.319Z,46.60
2023-02-23T04:23:11.258Z,42.30
2023-02-23T04:24:13.323Z,44.08
2023-02-23T04:25:17.389Z,40.80
2023-02-23T04:26:19.435Z,43.95
2023-02-23T04:27:21.134Z,50.67
2023-02-23T04:28:24.662Z,41.17
2023-02-23T04:29:26.674Z,46.67
2023-02-23T04:30:29.710Z,48.10
2023-02-23T04:31:31.376Z,49.70
2023-02-23T04:32:33.269Z,51.33
2023-02-23T04:33:37.800Z,50.97
2023-02-23T04:34:42.248Z,53.05
2023-02-23T04:35:44.108Z,45.75
2023-02-23T04:36:46.108Z,45.53
2023-02-23T04:37:47.902Z,41.88
2023-02-23T04:38:49.613Z,50.45
2023-02-23T04:39:51.299Z,50.72
2023-02-23T04:40:53.022Z,51.88
2023-02-23T04:41:54.632Z,51.28
2023-02-23T04:42:56.617Z,53.35
2023-02-23T04:43:58.564Z,52.25
2023-02-23T04:45:00.309Z,52.60
2023-02-23T04:46:02.139Z,54.88
2023-02-23T04:47:04.163Z,53.15
2023-02-23T04:48:06.662Z,53.08
2023-02-23T04:49:08.432Z,52.65
2023-02-23T04:50:11.323Z,52.60
2023-02-23T04:51:13.793Z,52.33
2023-02-23T04:52:15.620Z,55.08
2023-02-23T04:53:17.364Z,55.42
2023-02-23T04:54:18.936Z,50.97
2023-02-23T04:55:24.205Z,54.83
2023-02-23T04:56:26.149Z,58.25
2023-02-23T04:57:29.073Z,55.88
2023-02-23T04:58:30.716Z,58.70
2023-02-23T04:59:32.513Z,56.28
2023-02-23T05:00:34.151Z,57.35
2023-02-23T05:01:37.223Z,53.40
2023-02-23T05:02:39.247Z,57.85
2023-02-23T05:03:41.067Z,54.30
2023-02-23T05:04:42.783Z,57.40
2023-02-23T05:05:45.127Z,56.42
2023-02-23T05:06:46.690Z,52.95
2023-02-23T05:07:48.619Z,51.67
2023-02-23T05:08:50.274Z,53.58
2023-02-23T05:09:51.891Z,51.38
2023-02-23T05:10:53.651Z,52.28
2023-02-23T05:11:55.533Z,53.05
2023-02-23T05:12:58.170Z,52.05
2023-02-23T05:13:59.894Z,49.30
2023-02-23T05:15:01.454Z,51.60
2023-02-23T05:16:03.153Z,47.28
2023-02-23T05:17:05.918Z,50.22
2023-02-23T05:18:08.865Z,48.45
2023-02-23T05:19:10.671Z,46.70
2023-02-23T05:20:14.396Z,41.05
2023-02-23T05:21:16.328Z,43.83
2023-02-23T05:22:18.149Z,42.83
2023-02-23T05:23:21.913Z,44.22
2023-02-23T05:24:23.536Z,41.45
2023-02-23T05:25:25.631Z,45.33
2023-02-23T05:26:27.302Z,41.10
2023-02-23T05:27:28.969Z,38.75
2023-02-23T05:28:30.893Z,38.83
2023-02-23T05:29:32.720Z,36.33
2023-02-23T05:30:34.391Z,37.40
2023-02-23T05:31:36.778Z,35.97
2023-02-23T05:32:38.404Z,37.00
2023-02-23T05:33:44.155Z,32.50
2023-02-23T05:34:45.738Z,31.10
2023-02-23T05:35:48.258Z,36.28
2023-02-23T05:36:50.001Z,41.42
2023-02-23T05:37:52.812Z,41.60
2023-02-23T05:38:54.666Z,40.70
2023-02-23T05:39:56.321Z,39.08
2023-02-23T05:40:57.954Z,37.83
2023-02-23T05:41:59.647Z,39.65
2023-02-23T05:43:01.338Z,36.00
2023-02-23T05:44:03.116Z,38.20
2023-02-23T05:45:06.066Z,37.15
2023-02-23T05:46:15.156Z,37.58
2023-02-23T05:47:17.014Z,33.42
2023-02-23T05:48:18.663Z,34.75
2023-02-23T05:49:20.658Z,32.58
2023-02-23T05:50:22.535Z,31.17
2023-02-23T05:51:24.432Z,35.70
2023-02-23T05:52:26.100Z,35.33
2023-02-23T05:53:28.633Z,37.58
2023-02-23T05:54:30.313Z,38.00
2023-02-23T05:55:32.153Z,37.35
2023-02-23T05:56:33.891Z,34.08
2023-02-23T05:57:35.882Z,35.45
2023-02-23T05:58:37.710Z,32.40
2023-02-23T05:59:39.721Z,35.80
2023-02-23T06:00:41.486Z,36.20
2023-02-23T06:01:43.204Z,41.20
2023-02-23T06:02:44.994Z,45.28
2023-02-23T06:03:47.417Z,40.72
2023-02-23T06:04:49.301Z,39.05
2023-02-23T06:05:55.142Z,41.28
2023-02-23T06:06:57.088Z,37.97
2023-02-23T06:07:58.946Z,37.67
2023-02-23T06:09:03.486Z,38.33
2023-02-23T06:10:06.137Z,37.20
2023-02-23T06:11:08.178Z,39.42
2023-02-23T06:12:09.865Z,38.03
2023-02-23T06:13:11.881Z,37.95
2023-02-23T06:14:14.016Z,36.78
2023-02-23T06:15:15.665Z,37.45
2023-02-23T06:16:17.608Z,35.22
2023-02-23T06:17:19.511Z,33.05
2023-02-23T06:18:22.255Z,29.48
2023-02-23T06:19:24.002Z,32.28
2023-02-23T06:20:26.298Z,34.00
2023-02-23T06:21:27.980Z,32.72
2023-02-23T06:22:29.656Z,27.77
2023-02-23T06:23:32.554Z,29.95
2023-02-23T06:24:34.425Z,29.92
2023-02-23T06:25:36.229Z,27.10
2023-02-23T06:26:37.979Z,27.05
2023-02-23T06:27:40.450Z,29.90
2023-02-23T06:28:42.175Z,31.52
2023-02-23T06:29:44.242Z,31.83
2023-02-23T06:30:46.895Z,31.15
2023-02-23T06:31:48.674Z,31.75
2023-02-23T06:32:50.546Z,31.20
2023-02-23T06:33:52.488Z,34.60
2023-02-23T06:34:54.102Z,33.00
2023-02-23T06:35:55.910Z,35.33
2023-02-23T06:36:57.907Z,33.08
2023-02-23T06:38:00.461Z,35.20
2023-02-23T06:39:02.233Z,28.13
2023-02-23T06:40:05.000Z,28.85
2023-02-23T06:41:08.985Z,29.70
2023-02-23T06:42:10.932Z,31.65
2023-02-23T06:43:12.710Z,28.10
2023-02-23T06:44:14.486Z,33.63
2023-02-23T06:45:16.565Z,32.10
2023-02-23T06:46:19.024Z,33.95
2023-02-23T06:47:21.324Z,33.83
2023-02-23T06:48:23.050Z,33.00
2023-02-23T06:49:24.759Z,33.20
2023-02-23T06:50:27.399Z,35.50
2023-02-23T06:51:29.330Z,34.13
2023-02-23T06:52:31.001Z,35.25
2023-02-23T06:53:33.674Z,36.60
2023-02-23T06:54:37.867Z,35.70
2023-02-23T06:55:39.730Z,35.47
2023-02-23T06:56:41.517Z,31.58
2023-02-23T06:57:44.523Z,37.85
2023-02-23T06:58:48.192Z,27.20
2023-02-23T06:59:49.939Z,32.88
2023-02-23T07:00:51.701Z,36.90
2023-02-23T07:01:53.464Z,34.17
2023-02-23T07:02:57.907Z,36.35
2023-02-23T07:03:59.691Z,29.83
2023-02-23T07:05:01.446Z,30.35
2023-02-23T07:06:04.983Z,34.97
2023-02-23T07:07:07.140Z,36.78
2023-02-23T07:08:08.811Z,34.90
2023-02-23T07:09:10.829Z,36.38
2023-02-23T07:10:12.853Z,36.47
2023-02-23T07:11:17.490Z,32.33
2023-02-23T07:12:19.334Z,33.58
2023-02-23T07:13:22.240Z,30.73
2023-02-23T07:14:27.161Z,31.08
2023-02-23T07:15:29.287Z,32.75
2023-02-23T07:16:30.999Z,30.35
2023-02-23T07:17:32.907Z,36.45
2023-02-23T07:18:35.474Z,30.63
2023-02-23T07:19:37.393Z,29.77
2023-02-23T07:20:39.868Z,29.05
2023-02-23T07:21:41.629Z,28.80
2023-02-23T07:22:43.281Z,29.95
2023-02-23T07:23:45.006Z,34.40
2023-02-23T07:24:46.966Z,33.10
2023-02-23T07:25:53.080Z,35.25
2023-02-23T07:26:56.029Z,31.88
2023-02-23T07:27:59.139Z,30.80
2023-02-23T07:29:01.969Z,30.13
2023-02-23T07:30:04.153Z,26.10
2023-02-23T07:31:05.997Z,27.45
2023-02-23T07:32:07.806Z,27.17
2023-02-23T07:33:09.614Z,27.55
2023-02-23T07:34:12.636Z,25.70
2023-02-23T07:35:14.682Z,24.00
2023-02-23T07:36:16.502Z,23.50
2023-02-23T07:37:18.540Z,22.02
2023-02-23T07:38:20.256Z,19.13
2023-02-23T07:39:21.852Z,16.93
2023-02-23T07:40:23.808Z,17.63
2023-02-23T07:41:25.537Z,16.30
2023-02-23T07:42:27.462Z,16.57
2023-02-23T07:43:29.358Z,16.87
2023-02-23T07:44:31.015Z,19.00
2023-02-23T07:45:33.335Z,14.93
2023-02-23T07:46:35.103Z,17.17
2023-02-23T07:47:37.535Z,16.50
2023-02-23T07:48:40.757Z,15.80
2023-02-23T07:49:42.707Z,15.50
2023-02-23T07:50:44.687Z,14.93
2023-02-23T07:51:48.196Z,16.40
2023-02-23T07:52:51.443Z,15.90
2023-02-23T07:53:54.536Z,14.67
2023-02-23T07:54:57.449Z,13.57
2023-02-23T07:56:00.876Z,14.17
2023-02-23T07:57:02.720Z,13.97
2023-02-23T07:58:05.926Z,12.70
2023-02-23T07:59:08.090Z,14.43
2023-02-23T08:00:10.662Z,13.23
2023-02-23T08:01:14.429Z,12.07
2023-02-23T08:02:16.603Z,12.73
2023-02-23T08:03:20.567Z,13.37
2023-02-23T08:04:22.376Z,12.13
2023-02-23T08:05:26.576Z,13.37
2023-02-23T08:06:28.542Z,13.60
2023-02-23T08:07:33.421Z,12.97
2023-02-23T08:08:35.609Z,11.30
2023-02-23T08:09:37.447Z,12.10
2023-02-23T08:10:39.425Z,10.50
2023-02-23T08:11:41.617Z,11.40
2023-02-23T08:12:44.186Z,10.63
2023-02-23T08:13:45.998Z,9.63
2023-02-23T08:14:47.711Z,10.47
2023-02-23T08:15:49.254Z,10.87
2023-02-23T08:16:51.740Z,10.00
2023-02-23T08:17:53.577Z,9.13
2023-02-23T08:18:58.517Z,10.27
2023-02-23T08:20:00.856Z,9.60
2023-02-23T08:21:04.557Z,9.63
2023-02-23T08:22:09.913Z,9.43
2023-02-23T08:23:14.619Z,8.70
2023-02-23T08:24:17.762Z,10.17
2023-02-23T08:25:19.635Z,9.03
2023-02-23T08:26:22.173Z,8.73
2023-02-23T08:27:24.688Z,9.70
2023-02-23T08:28:27.691Z,9.10
2023-02-23T08:29:29.984Z,8.67
2023-02-23T08:30:31.871Z,8.87
2023-02-23T08:31:36.380Z,9.53
2023-02-23T08:32:38.251Z,9.37
2023-02-23T08:33:40.892Z,8.60
2023-02-23T08:34:44.172Z,8.70
2023-02-23T08:35:46.206Z,8.70
2023-02-23T08:36:47.959Z,8.53
2023-02-23T08:37:49.624Z,8.20
2023-02-23T08:38:54.452Z,8.47
2023-02-23T08:39:56.800Z,6.80
2023-02-23T08:41:01.811Z,7.43
2023-02-23T08:42:04.851Z,9.40
2023-02-23T08:43:06.537Z,19.50
2023-02-23T08:44:08.542Z,17.00
2023-02-23T08:45:11.672Z,15.30
2023-02-23T08:46:13.817Z,8.43
2023-02-23T08:47:18.040Z,7.60
2023-02-23T08:48:23.179Z,7.90
2023-02-23T08:49:26.170Z,8.63
2023-02-23T08:50:28.200Z,8.80
2023-02-23T08:51:29.924Z,7.80
2023-02-23T08:52:31.898Z,7.50
2023-02-23T08:53:33.827Z,7.20
2023-02-23T08:54:35.740Z,7.23
2023-02-23T08:55:38.328Z,7.97
2023-02-23T08:56:44.238Z,8.10
2023-02-23T08:57:46.052Z,7.93
2023-02-23T08:58:47.772Z,8.00
2023-02-23T08:59:49.497Z,8.23
2023-02-23T09:00:51.626Z,8.00
2023-02-23T09:01:54.334Z,7.43
2023-02-23T09:02:56.430Z,7.60
2023-02-23T09:03:59.192Z,7.73
2023-02-23T09:05:01.316Z,8.57
2023-02-23T09:06:10.427Z,6.57
2023-02-23T09:07:17.697Z,7.50
2023-02-23T09:08:19.725Z,7.03
2023-02-23T09:09:21.702Z,6.53
2023-02-23T09:10:29.000Z,7.27
2023-02-23T09:11:30.723Z,7.20
2023-02-23T09:12:32.471Z,7.80
2023-02-23T09:13:34.576Z,7.60
2023-02-23T09:14:36.804Z,6.77
2023-02-23T09:15:40.068Z,8.13
2023-02-23T09:16:41.868Z,8.07
2023-02-23T09:17:45.063Z,7.03
2023-02-23T09:18:46.856Z,7.37
2023-02-23T09:19:49.719Z,7.03
2023-02-23T09:20:51.850Z,7.47
2023-02-23T09:21:53.964Z,7.00
2023-02-23T09:22:55.974Z,7.27
2023-02-23T09:23:58.683Z,7.30
2023-02-23T09:25:00.417Z,7.20
2023-02-23T09:26:07.441Z,7.30
2023-02-23T09:27:12.627Z,7.70
2023-02-23T09:28:16.954Z,8.40
2023-02-23T09:29:18.549Z,7.00
2023-02-23T09:30:21.157Z,6.60
2023-02-23T09:31:24.605Z,7.13
2023-02-23T09:32:26.460Z,7.60
2023-02-23T09:33:28.587Z,7.50
2023-02-23T09:34:30.791Z,7.70
2023-02-23T09:35:32.704Z,6.77
2023-02-23T09:36:34.473Z,8.60
2023-02-23T09:37:36.638Z,8.50
2023-02-23T09:38:39.862Z,7.00
2023-02-23T09:39:41.721Z,7.90
2023-02-23T09:40:47.372Z,7.23
2023-02-23T09:42:08.472Z,7.40
2023-02-23T09:43:20.443Z,7.40
2023-02-23T09:44:41.117Z,8.37
2023-02-23T09:45:48.155Z,7.50
2023-02-23T09:47:21.496Z,7.80
2023-02-23T09:48:29.257Z,7.10
2023-02-23T09:49:37.981Z,8.40
2023-02-23T09:50:44.130Z,7.20
2023-02-23T09:51:54.388Z,7.10
2023-02-23T09:53:15.891Z,7.53
2023-02-23T09:54:19.010Z,7.77
2023-02-23T09:55:21.349Z,7.27
2023-02-23T09:56:29.344Z,7.80
2023-02-23T09:57:39.802Z,11.20
2023-02-23T09:58:41.853Z,12.80
2023-02-23T09:59:45.323Z,10.70
2023-02-23T10:01:11.054Z,10.63
2023-02-23T10:02:20.882Z,9.90
2023-02-23T10:03:30.884Z,10.17
2023-02-23T10:04:40.959Z,9.70
2023-02-23T10:06:17.119Z,10.90
2023-02-23T10:07:21.598Z,10.03
2023-02-23T10:08:47.624Z,10.23
2023-02-23T10:10:01.495Z,10.97
2023-02-23T10:11:12.666Z,10.50
2023-02-23T10:12:31.201Z,11.60
2023-02-23T10:14:00.577Z,11.40
2023-02-23T10:15:19.578Z,12.37
2023-02-23T10:16:46.191Z,12.83
2023-02-23T10:17:55.391Z,12.10
2023-02-23T10:19:06.433Z,13.73
2023-02-23T10:20:21.060Z,13.40
2023-02-23T10:21:36.060Z,13.87
2023-02-23T10:22:39.775Z,14.93
2023-02-23T10:23:46.986Z,13.90
2023-02-23T10:25:03.551Z,14.40
2023-02-23T10:26:08.813Z,15.43
2023-02-23T10:27:16.525Z,15.10
2023-02-23T10:28:21.986Z,14.10
2023-02-23T10:29:32.551Z,15.43
2023-02-23T10:30:34.942Z,15.50
2023-02-23T10:31:49.663Z,13.40
2023-02-23T10:32:59.856Z,13.20
2023-02-23T10:34:06.271Z,15.80
2023-02-23T10:35:14.039Z,15.00
2023-02-23T10:36:21.262Z,13.57
2023-02-23T10:37:25.725Z,14.20
2023-02-23T10:38:27.810Z,14.43
2023-02-23T10:39:31.809Z,14.13
2023-02-23T10:40:35.656Z,13.60
2023-02-23T10:41:38.341Z,14.63
2023-02-23T10:42:40.520Z,14.77
2023-02-23T10:43:42.786Z,13.23
2023-02-23T10:44:47.681Z,14.03
2023-02-23T10:45:51.973Z,12.97
2023-02-23T10:47:08.214Z,12.70
2023-02-23T10:48:18.776Z,15.00
2023-02-23T10:49:22.941Z,14.67
2023-02-23T10:50:29.137Z,14.03
2023-02-23T10:51:37.370Z,13.90
2023-02-23T10:52:46.113Z,13.10
2023-02-23T10:53:47.857Z,13.50
2023-02-23T10:54:52.072Z,12.43
2023-02-23T10:56:10.942Z,14.60
2023-02-23T10:57:30.590Z,13.23
2023-02-23T10:58:42.162Z,13.93
2023-02-23T11:00:07.269Z,13.97
2023-02-23T11:01:10.171Z,12.00
2023-02-23T11:02:26.639Z,13.17
2023-02-23T11:03:43.164Z,11.63
2023-02-23T11:04:53.750Z,12.30
2023-02-23T11:05:55.685Z,12.60
2023-02-23T11:07:16.592Z,12.20
2023-02-23T11:08:24.957Z,11.33
2023-02-23T11:09:43.222Z,12.50
2023-02-23T11:11:08.274Z,12.77
2023-02-23T11:12:41.934Z,13.27
2023-02-23T11:13:46.635Z,12.50
2023-02-23T11:14:53.401Z,13.03
2023-02-23T11:16:13.363Z,12.50
2023-02-23T11:17:35.215Z,13.20
2023-02-23T11:18:38.263Z,11.93
2023-02-23T11:19:41.322Z,13.37
2023-02-23T11:20:44.352Z,13.23
2023-02-23T11:21:51.653Z,12.00
2023-02-23T11:22:54.637Z,12.90
2023-02-23T11:23:59.575Z,12.83
2023-02-23T11:25:06.760Z,12.57
2023-02-23T11:26:30.577Z,12.77
2023-02-23T11:27:33.382Z,13.53
2023-02-23T11:28:41.281Z,12.57
2023-02-23T11:29:49.119Z,12.40
2023-02-23T11:30:51.641Z,12.40
2023-02-23T11:31:57.761Z,12.73
2023-02-23T11:33:11.087Z,13.13
2023-02-23T11:34:32.629Z,13.13
2023-02-23T11:35:35.183Z,12.67
2023-02-23T11:36:38.126Z,14.70
2023-02-23T11:37:41.823Z,12.67
2023-02-23T11:38:45.432Z,12.83
2023-02-23T11:39:58.890Z,13.80
2023-02-23T11:41:02.424Z,13.43
2023-02-23T11:42:05.594Z,14.63
2023-02-23T11:43:16.609Z,14.67
2023-02-23T11:44:23.452Z,15.77
2023-02-23T11:45:27.905Z,14.77
2023-02-23T11:46:31.699Z,13.70
2023-02-23T11:47:39.292Z,15.70
2023-02-23T11:48:59.846Z,14.60
2023-02-23T11:50:02.915Z,13.37
2023-02-23T11:51:05.272Z,15.17
2023-02-23T11:52:18.667Z,14.73
2023-02-23T11:53:29.193Z,14.37
2023-02-23T11:54:35.442Z,14.63
2023-02-23T11:55:37.962Z,14.97
2023-02-23T11:56:41.390Z,15.03
2023-02-23T11:57:44.028Z,13.87
2023-02-23T11:58:50.348Z,13.40
2023-02-23T11:59:53.383Z,14.50
2023-02-23T12:00:58.857Z,13.70
2023-02-23T12:02:28.965Z,13.30
2023-02-23T12:03:34.296Z,14.27
2023-02-23T12:04:39.054Z,14.67
2023-02-23T12:05:41.099Z,14.27
2023-02-23T12:06:42.922Z,13.47
2023-02-23T12:08:14.860Z,15.80
2023-02-23T12:09:23.936Z,13.40
2023-02-23T12:10:43.288Z,14.73
2023-02-23T12:11:52.109Z,14.77
2023-02-23T12:13:15.585Z,14.50
2023-02-23T12:14:29.416Z,14.90
2023-02-23T12:16:23.398Z,14.67
2023-02-23T12:17:25.094Z,14.10
2023-02-23T12:18:45.687Z,15.00
2023-02-23T12:20:02.147Z,14.10
2023-02-23T12:21:39.713Z,13.67
2023-02-23T12:22:57.637Z,13.33
2023-02-23T12:24:10.917Z,14.27
2023-02-23T12:25:27.551Z,12.87
2023-02-23T12:26:33.966Z,13.20
2023-02-23T12:27:51.419Z,14.47
2023-02-23T12:29:21.718Z,13.50
2023-02-23T12:30:27.436Z,13.40
2023-02-23T12:31:49.852Z,12.33
2023-02-23T12:33:09.951Z,13.30
2023-02-23T12:34:25.564Z,12.70
2023-02-23T12:35:31.210Z,12.77
2023-02-23T12:36:38.938Z,12.87
2023-02-23T12:37:49.897Z,11.07
2023-02-23T12:39:06.673Z,13.80
2023-02-23T12:40:34.374Z,13.90
2023-02-23T12:41:48.186Z,13.40
2023-02-23T12:42:56.639Z,13.07
2023-02-23T12:44:15.364Z,14.10
2023-02-23T12:45:31.309Z,12.93
2023-02-23T12:46:47.536Z,13.30
2023-02-23T12:48:20.050Z,13.60
2023-02-23T12:49:44.712Z,13.77
2023-02-23T12:50:53.173Z,12.83
2023-02-23T12:52:08.650Z,13.17
2023-02-23T12:53:40.914Z,13.60
2023-02-23T12:54:44.941Z,14.83
2023-02-23T12:56:21.270Z,14.07
2023-02-23T12:57:45.348Z,13.87
2023-02-23T12:59:25.429Z,13.03
2023-02-23T13:00:39.789Z,11.73
2023-02-23T13:01:54.743Z,12.97
2023-02-23T13:03:20.021Z,12.90
2023-02-23T13:04:58.928Z,12.23
2023-02-23T13:06:36.764Z,12.80
2023-02-23T13:07:45.639Z,11.20
2023-02-23T13:08:56.750Z,13.20
2023-02-23T13:10:39.322Z,12.13
2023-02-23T13:11:44.040Z,12.87
2023-02-23T13:12:49.606Z,11.10
2023-02-23T13:14:00.244Z,12.07
2023-02-23T13:15:30.634Z,12.93
2023-02-23T13:16:44.371Z,13.90
2023-02-23T13:18:22.230Z,13.43
2023-02-23T13:19:35.606Z,15.90
2023-02-23T13:20:38.810Z,13.90
2023-02-23T13:21:48.868Z,15.00
2023-02-23T13:23:15.305Z,15.93
2023-02-23T13:24:27.218Z,14.10
2023-02-23T13:25:34.989Z,14.67
2023-02-23T13:26:40.827Z,13.60
2023-02-23T13:27:50.652Z,14.60
2023-02-23T13:28:59.350Z,15.50
2023-02-23T13:30:02.270Z,13.50
2023-02-23T13:31:05.993Z,14.20
2023-02-23T13:32:18.321Z,13.97
2023-02-23T13:33:43.266Z,13.70
2023-02-23T13:35:12.624Z,13.67
2023-02-23T13:36:18.933Z,12.63
2023-02-23T13:37:51.912Z,14.50
2023-02-23T13:39:44.814Z,15.23
2023-02-23T13:41:05.777Z,14.50
2023-02-23T13:42:31.042Z,14.37
2023-02-23T13:43:49.398Z,14.57
2023-02-23T13:44:57.144Z,15.10
2023-02-23T13:46:26.292Z,14.33
2023-02-23T13:47:33.723Z,14.67
2023-02-23T13:48:55.597Z,14.37
2023-02-23T13:50:07.209Z,13.43
2023-02-23T13:51:14.149Z,13.37
2023-02-23T13:52:39.859Z,14.03
2023-02-23T13:53:47.878Z,13.67
2023-02-23T13:54:58.817Z,15.20
2023-02-23T13:56:07.318Z,14.63
2023-02-23T13:57:18.243Z,14.23
2023-02-23T13:58:29.536Z,15.17
2023-02-23T13:59:38.866Z,15.87
2023-02-23T14:00:41.322Z,14.43
2023-02-23T14:01:45.790Z,15.70
2023-02-23T14:02:49.118Z,14.47
2023-02-23T14:03:57.265Z,15.23
2023-02-23T14:05:31.605Z,16.27
2023-02-23T14:06:34.844Z,13.67
2023-02-23T14:07:41.924Z,14.30
2023-02-23T14:08:45.869Z,13.30
2023-02-23T14:09:56.491Z,15.73
2023-02-23T14:10:58.510Z,13.43
2023-02-23T14:12:16.834Z,14.63
2023-02-23T14:13:20.771Z,15.90
2023-02-23T14:14:31.606Z,15.53
2023-02-23T14:15:37.862Z,14.63
2023-02-23T14:16:40.454Z,13.93
2023-02-23T14:17:42.532Z,14.07
2023-02-23T14:19:04.301Z,14.10
2023-02-23T14:20:17.824Z,13.30
2023-02-23T14:21:27.363Z,14.77
2023-02-23T14:22:29.085Z,16.93
2023-02-23T14:23:35.899Z,16.77
2023-02-23T14:24:37.746Z,17.87
2023-02-23T14:25:39.312Z,14.13
2023-02-23T14:26:44.506Z,12.00
2023-02-23T14:27:46.329Z,13.23
2023-02-23T14:29:11.100Z,13.47
2023-02-23T14:30:16.288Z,14.27
2023-02-23T14:31:21.174Z,12.67
2023-02-23T14:32:23.243Z,13.50
2023-02-23T14:33:45.821Z,13.70
2023-02-23T14:34:53.421Z,13.67
2023-02-23T14:35:56.089Z,13.87
2023-02-23T14:37:14.594Z,13.27
2023-02-23T14:38:35.972Z,15.77
2023-02-23T14:39:43.992Z,14.63
2023-02-23T14:40:49.338Z,15.90
2023-02-23T14:41:55.399Z,15.17
2023-02-23T14:43:00.734Z,12.63
2023-02-23T14:44:44.984Z,14.80
2023-02-23T14:45:46.835Z,14.73
2023-02-23T14:46:54.815Z,16.40